Time;durP1;ratioP1;P1;durP2;ratioP2;P2;SDS_P1;SDS_P2;PMS_P1;PMS_P2;Temp;Humidity;BMP_temperature;BMP_pressure;BME280_temperature;BME280_humidity;BME280_pressure;Samples;Min_cycle;Max_cycle;Signal;HPM_P1;HPM_P2
2021/06/28 00:01:36;;;;;;;4.60;2.20;;;10.50;99.90;;;;;;4953186;29;20203;-83
2021/06/28 00:04:03;;;;;;;5.23;2.23;;;10.70;99.90;;;;;;4947611;29;20242;-83
2021/06/28 00:06:30;;;;;;;4.90;1.90;;;10.60;99.90;;;;;;4944596;28;20295;-83
2021/06/28 00:08:58;;;;;;;4.23;2.43;;;10.50;99.90;;;;;;4943650;29;20231;-83
2021/06/28 00:11:26;;;;;;;6.87;2.50;;;10.70;99.90;;;;;;4954159;29;20199;-83
2021/06/28 00:13:54;;;;;;;3.27;2.50;;;10.70;99.90;;;;;;4949451;29;20592;-83
2021/06/28 00:16:23;;;;;;;4.87;2.40;;;10.60;99.90;;;;;;4937246;29;20580;-83
2021/06/28 00:18:51;;;;;;;5.43;2.20;;;10.60;99.90;;;;;;4936468;29;20291;-83
2021/06/28 00:21:19;;;;;;;4.40;2.30;;;10.50;99.90;;;;;;4956100;29;20751;-83
2021/06/28 00:23:47;;;;;;;4.30;2.27;;;10.40;99.90;;;;;;4954734;29;20213;-83
2021/06/28 00:26:14;;;;;;;8.37;2.67;;;10.40;99.90;;;;;;4955870;29;20202;-83
2021/06/28 00:28:42;;;;;;;5.20;2.60;;;10.30;99.90;;;;;;4956186;29;20237;-83
2021/06/28 00:31:09;;;;;;;3.43;2.40;;;10.30;99.90;;;;;;4956129;29;20235;-83
2021/06/28 00:33:36;;;;;;;5.73;2.47;;;10.30;99.90;;;;;;4951481;29;20262;-83
2021/06/28 00:36:03;;;;;;;3.50;2.30;;;10.20;99.90;;;;;;4936739;29;20251;-83
2021/06/28 00:38:30;;;;;;;4.07;2.47;;;10.20;99.90;;;;;;4945880;29;20242;-83
2021/06/28 00:40:58;;;;;;;4.73;2.60;;;10.20;99.90;;;;;;4936700;29;20694;-82
2021/06/28 00:43:24;;;;;;;7.10;2.30;;;10.10;99.90;;;;;;4950641;29;20286;-83
2021/06/28 00:45:53;;;;;;;4.83;2.53;;;10.10;99.90;;;;;;4956139;29;20282;-83
2021/06/28 00:48:20;;;;;;;4.07;2.53;;;10.10;99.90;;;;;;4943630;29;20254;-83
2021/06/28 00:50:49;;;;;;;3.43;2.30;;;10.00;99.90;;;;;;4948607;29;20238;-83
2021/06/28 00:53:17;;;;;;;4.73;2.30;;;9.90;99.90;;;;;;4936987;29;20310;-83
2021/06/28 00:55:46;;;;;;;7.70;2.97;;;10.00;99.90;;;;;;4946174;29;20668;-83
2021/06/28 00:58:15;;;;;;;7.33;2.63;;;10.00;99.90;;;;;;4947090;29;20283;-83
2021/06/28 01:00:42;;;;;;;6.20;2.60;;;10.00;99.90;;;;;;4955912;29;20707;-83
2021/06/28 01:03:11;;;;;;;8.47;2.70;;;9.90;99.90;;;;;;4945691;29;20294;-83
2021/06/28 01:05:40;;;;;;;3.30;2.50;;;10.00;99.90;;;;;;4937263;29;20303;-83
2021/06/28 01:08:08;;;;;;;10.57;2.83;;;10.00;99.90;;;;;;4955494;29;20720;-83
2021/06/28 01:10:37;;;;;;;4.80;2.60;;;10.00;99.90;;;;;;4944388;29;20635;-83
2021/06/28 01:13:04;;;;;;;5.83;2.40;;;9.90;99.90;;;;;;4935876;29;20211;-83
2021/06/28 01:15:32;;;;;;;6.23;2.57;;;9.90;99.90;;;;;;4945701;28;20235;-83
2021/06/28 01:18:00;;;;;;;5.23;2.63;;;9.90;99.90;;;;;;4953334;28;20226;-82
2021/06/28 01:20:30;;;;;;;6.10;2.83;;;9.90;99.90;;;;;;4955586;29;20203;-83
2021/06/28 01:23:02;;;;;;;4.70;2.50;;;9.90;99.90;;;;;;4954031;29;20265;-83
2021/06/28 01:25:31;;;;;;;5.30;2.80;;;9.80;99.90;;;;;;4951551;29;20295;-83
2021/06/28 01:27:58;;;;;;;8.93;2.47;;;9.80;99.90;;;;;;4941708;29;20286;-83
2021/06/28 01:30:29;;;;;;;7.90;2.67;;;9.80;99.90;;;;;;4940818;29;20243;-82
2021/06/28 01:32:57;;;;;;;4.73;2.80;;;9.80;99.90;;;;;;4946415;29;20257;-83
2021/06/28 01:35:24;;;;;;;4.40;2.70;;;9.70;99.90;;;;;;4943768;29;20257;-83
2021/06/28 01:37:52;;;;;;;7.77;2.60;;;9.60;99.90;;;;;;4954834;29;20207;-83
2021/06/28 01:40:19;;;;;;;4.03;2.50;;;9.50;99.90;;;;;;4940318;29;20294;-83
2021/06/28 01:42:49;;;;;;;7.23;2.77;;;9.50;99.90;;;;;;4935352;29;20308;-83
2021/06/28 01:45:18;;;;;;;5.70;2.30;;;9.50;99.90;;;;;;4944552;29;20237;-83
2021/06/28 01:47:46;;;;;;;4.33;2.60;;;9.50;99.90;;;;;;4935627;29;20242;-83
2021/06/28 01:50:15;;;;;;;6.43;2.80;;;9.30;99.90;;;;;;4941827;29;20203;-83
2021/06/28 01:52:43;;;;;;;8.03;2.80;;;9.40;99.90;;;;;;4953906;29;20291;-83
2021/06/28 01:55:12;;;;;;;5.17;2.90;;;9.40;99.90;;;;;;4954513;29;20339;-83
2021/06/28 01:57:42;;;;;;;8.93;3.10;;;9.40;99.90;;;;;;4954429;29;20441;-83
2021/06/28 02:00:14;;;;;;;6.60;3.20;;;9.40;99.90;;;;;;4946912;29;20206;-83
2021/06/28 02:02:41;;;;;;;6.13;3.43;;;9.40;99.90;;;;;;4954810;29;20238;-83
2021/06/28 02:05:09;;;;;;;7.50;3.40;;;9.40;99.90;;;;;;4949905;29;20298;-83
2021/06/28 02:07:36;;;;;;;5.90;3.17;;;9.40;99.90;;;;;;4954651;29;20668;-83
2021/06/28 02:10:05;;;;;;;3.80;3.20;;;9.40;99.90;;;;;;4942583;29;20237;-83
2021/06/28 02:12:32;;;;;;;6.87;3.50;;;9.40;99.90;;;;;;4938054;29;20236;-83
2021/06/28 02:14:59;;;;;;;5.73;2.70;;;9.40;99.90;;;;;;4947826;29;20255;-83
2021/06/28 02:17:27;;;;;;;5.17;3.07;;;9.30;99.90;;;;;;4943646;29;20640;-83
2021/06/28 02:19:54;;;;;;;8.97;3.30;;;9.30;99.90;;;;;;4952877;29;20235;-83
2021/06/28 02:22:21;;;;;;;5.87;3.17;;;9.30;99.90;;;;;;4951810;28;20810;-83
2021/06/28 02:24:48;;;;;;;7.60;3.23;;;9.30;99.90;;;;;;4940208;29;20291;-83
2021/06/28 02:27:15;;;;;;;6.10;3.10;;;9.30;99.90;;;;;;4940682;29;20227;-83
2021/06/28 02:29:42;;;;;;;9.50;3.47;;;9.30;99.90;;;;;;4951825;29;20311;-83
2021/06/28 02:32:09;;;;;;;7.80;3.27;;;9.30;99.90;;;;;;4954003;29;20740;-83
2021/06/28 02:34:37;;;;;;;6.87;3.50;;;9.30;99.90;;;;;;4951652;29;20254;-83
2021/06/28 02:37:05;;;;;;;8.40;3.43;;;9.30;99.90;;;;;;4949533;29;20231;-83
2021/06/28 02:39:32;;;;;;;6.57;3.37;;;9.30;99.90;;;;;;4936432;29;20241;-83
2021/06/28 02:41:59;;;;;;;9.60;3.60;;;9.30;99.90;;;;;;4948661;29;20203;-83
2021/06/28 02:44:25;;;;;;;5.73;3.30;;;9.30;99.90;;;;;;4941254;29;20296;-83
2021/06/28 02:46:52;;;;;;;4.33;3.17;;;9.20;99.90;;;;;;4951299;29;20226;-83
2021/06/28 02:49:19;;;;;;;6.83;3.50;;;9.10;99.90;;;;;;4953198;29;20238;-83
2021/06/28 02:51:48;;;;;;;5.20;3.23;;;9.10;99.90;;;;;;4954066;29;20245;-83
2021/06/28 02:54:15;;;;;;;5.23;3.40;;;9.10;99.90;;;;;;4951980;29;20260;-82
2021/06/28 02:56:42;;;;;;;7.60;3.50;;;9.10;99.90;;;;;;4936559;29;20319;-83
2021/06/28 02:59:11;;;;;;;7.73;3.97;;;9.20;99.90;;;;;;4950810;28;20295;-83
2021/06/28 03:01:38;;;;;;;6.73;3.57;;;9.20;99.90;;;;;;4944797;29;20211;-83
2021/06/28 03:04:06;;;;;;;6.60;3.57;;;9.30;99.90;;;;;;4946971;29;20203;-83
2021/06/28 03:06:33;;;;;;;4.83;3.37;;;9.40;99.90;;;;;;4943810;29;20242;-83
2021/06/28 03:09:01;;;;;;;5.27;3.10;;;9.40;99.90;;;;;;4952990;29;20243;-83
2021/06/28 03:11:28;;;;;;;6.13;3.33;;;9.20;99.90;;;;;;4947422;28;20230;-83
2021/06/28 03:13:55;;;;;;;5.17;3.30;;;9.20;99.90;;;;;;4946043;29;20239;-83
2021/06/28 03:16:22;;;;;;;7.93;3.30;;;9.20;99.90;;;;;;4952933;29;20250;-83
2021/06/28 03:18:49;;;;;;;6.23;3.40;;;9.20;99.90;;;;;;4940992;29;20208;-83
2021/06/28 03:21:16;;;;;;;5.13;3.30;;;9.20;99.90;;;;;;4944537;28;20273;-82
2021/06/28 03:23:44;;;;;;;6.20;3.70;;;9.20;99.90;;;;;;4952982;29;20235;-83
2021/06/28 03:26:13;;;;;;;5.13;3.27;;;9.20;99.90;;;;;;4952022;29;20234;-83
2021/06/28 03:28:41;;;;;;;6.97;3.50;;;9.20;99.90;;;;;;4935379;29;20283;-82
2021/06/28 03:31:09;;;;;;;5.53;3.50;;;9.20;99.90;;;;;;4934373;29;20204;-82
2021/06/28 03:33:37;;;;;;;5.07;2.90;;;9.10;99.90;;;;;;4934770;29;20229;-83
2021/06/28 03:36:05;;;;;;;3.37;2.77;;;9.10;99.90;;;;;;4948424;29;20307;-82
2021/06/28 03:38:32;;;;;;;6.57;3.20;;;9.00;99.90;;;;;;4954186;28;20643;-83
2021/06/28 03:40:59;;;;;;;5.13;3.23;;;9.00;99.90;;;;;;4948137;29;20251;-82
2021/06/28 03:43:28;;;;;;;7.10;3.60;;;9.00;99.90;;;;;;4938326;29;20294;-82
2021/06/28 03:45:55;;;;;;;8.67;3.50;;;9.00;99.90;;;;;;4938139;29;20290;-83
2021/06/28 03:48:21;;;;;;;8.70;3.50;;;9.00;99.90;;;;;;4938536;29;20384;-83
2021/06/28 03:50:51;;;;;;;5.33;2.80;;;9.00;99.90;;;;;;4953748;29;20230;-83
2021/06/28 03:53:18;;;;;;;6.40;2.80;;;8.90;99.90;;;;;;4956333;29;20199;-83
2021/06/28 03:55:46;;;;;;;7.83;3.10;;;8.80;99.90;;;;;;4952214;29;20246;-83
2021/06/28 03:58:13;;;;;;;11.57;3.03;;;8.80;99.90;;;;;;4947916;29;20199;-83
2021/06/28 04:00:42;;;;;;;6.87;3.27;;;8.80;99.90;;;;;;4955069;29;20231;-82
2021/06/28 04:03:09;;;;;;;7.70;3.60;;;8.90;99.90;;;;;;4956833;29;20677;-82
2021/06/28 04:05:36;;;;;;;6.77;3.00;;;9.00;99.90;;;;;;4956400;29;20200;-83
2021/06/28 04:08:03;;;;;;;7.60;3.33;;;8.90;99.90;;;;;;4956444;29;20302;-83
2021/06/28 04:10:30;;;;;;;9.50;3.40;;;9.00;99.90;;;;;;4955495;29;20236;-83
2021/06/28 04:12:57;;;;;;;6.83;3.40;;;8.90;99.90;;;;;;4956810;29;20287;-83
2021/06/28 04:15:25;;;;;;;8.13;3.37;;;8.90;99.90;;;;;;4956160;29;20256;-83
2021/06/28 04:17:55;;;;;;;7.47;3.80;;;8.90;99.90;;;;;;4951844;29;20199;-83
2021/06/28 04:20:26;;;;;;;7.23;3.37;;;9.00;99.90;;;;;;4952345;29;20251;-83
2021/06/28 04:22:54;;;;;;;6.00;3.33;;;9.00;99.90;;;;;;4954594;29;20272;-83
2021/06/28 04:25:24;;;;;;;6.07;3.30;;;9.00;99.90;;;;;;4955502;29;20280;-83
2021/06/28 04:27:52;;;;;;;6.33;3.60;;;9.00;99.90;;;;;;4956244;29;20203;-83
2021/06/28 04:30:21;;;;;;;7.63;3.37;;;9.10;99.90;;;;;;4956351;29;20242;-83
2021/06/28 04:32:48;;;;;;;9.67;3.73;;;9.10;99.90;;;;;;4956072;29;20254;-83
2021/06/28 04:35:19;;;;;;;8.30;3.80;;;9.20;99.90;;;;;;4942553;29;20303;-83
2021/06/28 04:37:47;;;;;;;10.73;3.50;;;9.30;99.90;;;;;;4945843;29;20290;-82
2021/06/28 04:40:16;;;;;;;9.10;3.80;;;9.30;99.90;;;;;;4941164;29;20684;-83
2021/06/28 04:42:44;;;;;;;8.67;3.37;;;9.30;99.90;;;;;;4942720;29;20290;-82
2021/06/28 04:45:13;;;;;;;4.80;3.23;;;9.30;99.90;;;;;;4954681;29;20231;-82
2021/06/28 04:47:40;;;;;;;6.33;3.20;;;9.40;99.90;;;;;;4955195;29;20234;-82
2021/06/28 04:50:09;;;;;;;5.00;3.20;;;9.40;99.90;;;;;;4936767;29;20565;-83
2021/06/28 04:52:38;;;;;;;6.50;3.50;;;9.50;99.90;;;;;;4937399;29;20679;-82
2021/06/28 04:55:09;;;;;;;9.10;3.47;;;9.50;99.90;;;;;;4936636;29;20314;-82
2021/06/28 04:57:36;;;;;;;6.27;3.50;;;9.60;99.90;;;;;;4935489;29;20663;-83
2021/06/28 05:00:05;;;;;;;8.83;3.90;;;9.70;99.90;;;;;;4939056;29;20231;-83
2021/06/28 05:02:32;;;;;;;6.77;3.43;;;9.70;99.90;;;;;;4937192;29;20299;-83
2021/06/28 05:04:59;;;;;;;8.97;3.60;;;9.90;99.90;;;;;;4941457;29;20279;-83
2021/06/28 05:07:26;;;;;;;10.63;4.10;;;10.00;99.90;;;;;;4937114;29;20243;-83
2021/06/28 05:09:54;;;;;;;6.57;4.07;;;10.10;99.90;;;;;;4938406;29;20237;-82
2021/06/28 05:12:21;;;;;;;6.60;3.93;;;10.30;99.90;;;;;;4945874;29;20293;-82
2021/06/28 05:14:48;;;;;;;7.93;4.07;;;10.50;99.90;;;;;;4952382;29;20302;-82
2021/06/28 05:17:15;;;;;;;4.60;3.80;;;10.60;99.90;;;;;;4945101;29;20310;-82
2021/06/28 05:19:42;;;;;;;7.60;3.90;;;10.90;99.90;;;;;;4936383;29;20619;-82
2021/06/28 05:22:08;;;;;;;9.47;3.93;;;11.00;99.90;;;;;;4937141;29;20326;-83
2021/06/28 05:24:35;;;;;;;6.43;3.37;;;11.20;99.90;;;;;;4937460;29;20302;-81
2021/06/28 05:27:05;;;;;;;6.20;3.50;;;11.30;99.90;;;;;;4941914;29;20294;-81
2021/06/28 05:29:32;;;;;;;5.67;3.53;;;11.50;99.90;;;;;;4938384;29;20690;-81
2021/06/28 05:31:59;;;;;;;4.93;3.33;;;11.70;99.90;;;;;;4946958;29;20258;-83
2021/06/28 05:34:26;;;;;;;4.57;3.00;;;12.20;99.90;;;;;;4952363;29;20282;-83
2021/06/28 05:36:53;;;;;;;5.77;2.83;;;12.50;99.90;;;;;;4950670;28;20678;-81
2021/06/28 05:39:20;;;;;;;6.27;3.00;;;12.90;99.90;;;;;;4948901;29;20665;-82
2021/06/28 05:41:47;;;;;;;5.73;2.40;;;13.40;99.90;;;;;;4955251;29;20223;-82
2021/06/28 05:44:15;;;;;;;7.13;2.80;;;13.90;99.90;;;;;;4950848;29;20239;-81
2021/06/28 05:46:42;;;;;;;6.90;3.00;;;14.60;99.90;;;;;;4951125;29;20214;-80
2021/06/28 05:49:09;;;;;;;9.97;2.50;;;15.00;99.90;;;;;;4954806;29;20258;-81
2021/06/28 05:51:36;;;;;;;9.07;2.70;;;14.40;99.90;;;;;;4955116;29;20230;-81
2021/06/28 05:54:03;;;;;;;5.53;2.50;;;14.00;99.90;;;;;;4954761;29;20230;-80
2021/06/28 05:56:30;;;;;;;6.97;2.37;;;13.50;99.90;;;;;;4953210;29;20274;-81
2021/06/28 05:58:57;;;;;;;4.20;2.50;;;13.30;99.90;;;;;;4935117;29;20308;-81
2021/06/28 06:01:26;;;;;;;4.67;2.30;;;13.10;99.90;;;;;;4949310;28;20290;-81
2021/06/28 06:03:52;;;;;;;7.67;2.40;;;13.20;99.90;;;;;;4955597;29;20203;-81
2021/06/28 06:06:19;;;;;;;5.77;2.67;;;14.60;99.90;;;;;;4942184;29;20729;-81
2021/06/28 06:08:46;;;;;;;6.63;2.00;;;16.00;99.90;;;;;;4937418;29;20236;-81
2021/06/28 06:11:13;;;;;;;4.53;1.80;;;17.00;99.90;;;;;;4936178;29;20291;-82
2021/06/28 06:13:40;;;;;;;5.93;1.80;;;17.70;99.90;;;;;;4938762;29;20291;-81
2021/06/28 06:16:07;;;;;;;4.55;1.67;;;18.20;99.90;;;;;;4943152;29;20742;-81
2021/06/28 06:18:35;;;;;;;5.85;1.85;;;18.80;99.90;;;;;;4952961;29;20261;-80
2021/06/28 06:21:03;;;;;;;4.20;1.52;;;19.30;99.90;;;;;;4950541;29;20227;-81
2021/06/28 06:23:30;;;;;;;4.63;1.30;;;18.80;99.90;;;;;;4951124;29;20673;-81
2021/06/28 06:25:57;;;;;;;5.45;1.55;;;18.90;99.90;;;;;;4942132;29;20231;-81
2021/06/28 06:28:24;;;;;;;5.10;1.42;;;19.50;99.90;;;;;;4949634;28;20254;-81
2021/06/28 06:30:51;;;;;;;4.00;1.38;;;20.00;99.90;;;;;;4941409;28;20204;-81
2021/06/28 06:33:21;;;;;;;4.07;1.50;;;20.80;99.90;;;;;;4944090;29;20227;-81
2021/06/28 06:35:49;;;;;;;5.55;1.85;;;21.10;99.90;;;;;;4942591;29;20282;-81
2021/06/28 06:38:16;;;;;;;3.83;1.48;;;20.40;99.90;;;;;;4937383;28;20287;-81
2021/06/28 06:40:45;;;;;;;6.47;1.73;;;19.10;99.90;;;;;;4940111;29;20273;-82
2021/06/28 06:43:12;;;;;;;6.80;1.80;;;19.70;99.90;;;;;;4943463;29;20286;-81
2021/06/28 06:45:39;;;;;;;7.03;1.92;;;20.30;99.90;;;;;;4940401;29;20283;-82
2021/06/28 06:48:07;;;;;;;6.50;1.83;;;20.00;99.90;;;;;;4946289;29;20301;-82
2021/06/28 06:50:34;;;;;;;3.83;1.67;;;20.00;99.90;;;;;;4948588;29;20287;-81
2021/06/28 06:53:03;;;;;;;4.82;2.00;;;20.60;99.90;;;;;;4951866;29;20286;-81
2021/06/28 06:55:30;;;;;;;5.28;2.00;;;19.20;99.90;;;;;;4941953;28;20303;-82
2021/06/28 06:57:57;;;;;;;5.82;2.10;;;19.60;99.90;;;;;;4946144;29;20226;-82
2021/06/28 07:00:24;;;;;;;3.42;1.83;;;20.50;99.90;;;;;;4940486;29;20290;-81
2021/06/28 07:02:51;;;;;;;5.28;1.90;;;21.10;99.90;;;;;;4934515;29;20250;-81
2021/06/28 07:05:19;;;;;;;8.98;2.17;;;20.90;99.90;;;;;;4948611;29;20203;-81
2021/06/28 07:07:46;;;;;;;3.15;2.10;;;21.10;99.90;;;;;;4940538;29;20598;-82
2021/06/28 07:10:16;;;;;;;6.65;2.15;;;21.80;99.90;;;;;;4935738;29;20294;-82
2021/06/28 07:12:44;;;;;;;3.88;1.95;;;20.10;99.90;;;;;;4943527;29;20208;-82
2021/06/28 07:15:14;;;;;;;4.00;1.60;;;20.70;99.90;;;;;;4948777;29;20286;-82
2021/06/28 07:17:42;;;;;;;4.82;1.80;;;22.30;99.90;;;;;;4948371;28;20651;-82
2021/06/28 07:20:11;;;;;;;3.92;2.00;;;22.90;99.90;;;;;;4942894;29;20718;-82
2021/06/28 07:22:38;;;;;;;3.30;1.60;;;22.20;99.90;;;;;;4951455;28;20277;-81
2021/06/28 07:25:06;;;;;;;3.28;1.88;;;20.50;99.90;;;;;;4950889;28;20282;-82
2021/06/28 07:27:35;;;;;;;4.70;2.08;;;18.60;99.90;;;;;;4937312;29;20298;-82
2021/06/28 07:30:02;;;;;;;5.75;2.13;;;17.70;99.90;;;;;;4948420;29;20283;-81
2021/06/28 07:32:29;;;;;;;3.22;2.13;;;17.30;99.90;;;;;;4941612;29;20242;-81
2021/06/28 07:34:56;;;;;;;6.75;2.30;;;17.40;99.90;;;;;;4943542;29;20235;-81
2021/06/28 07:37:23;;;;;;;5.00;2.40;;;17.60;99.90;;;;;;4943882;29;20314;-81
2021/06/28 07:39:51;;;;;;;4.60;1.88;;;18.10;99.90;;;;;;4939467;29;20299;-82
2021/06/28 07:42:18;;;;;;;5.30;2.10;;;18.60;99.90;;;;;;4943344;29;20198;-81
2021/06/28 07:44:46;;;;;;;6.15;2.60;;;19.20;99.90;;;;;;4934087;29;20207;-82
2021/06/28 07:47:13;;;;;;;5.63;2.17;;;19.30;99.90;;;;;;4944335;29;20286;-82
2021/06/28 07:49:40;;;;;;;7.55;2.33;;;19.90;99.90;;;;;;4943353;29;20251;-82
2021/06/28 07:52:09;;;;;;;9.10;2.30;;;19.90;99.90;;;;;;4943253;29;20243;-82
2021/06/28 07:54:37;;;;;;;4.72;2.00;;;20.80;99.90;;;;;;4944659;29;20307;-82
2021/06/28 07:57:05;;;;;;;5.28;1.92;;;20.50;99.90;;;;;;4940977;29;20220;-81
2021/06/28 07:59:32;;;;;;;5.00;2.20;;;20.20;99.90;;;;;;4950701;29;20235;-81
2021/06/28 08:02:00;;;;;;;7.15;2.38;;;19.40;99.90;;;;;;4943554;29;20208;-81
2021/06/28 08:04:27;;;;;;;6.65;2.50;;;19.50;99.90;;;;;;4939280;29;20196;-81
2021/06/28 08:06:55;;;;;;;6.47;2.53;;;19.80;99.90;;;;;;4942459;29;20596;-81
2021/06/28 08:09:22;;;;;;;3.80;2.05;;;19.60;99.90;;;;;;4945226;29;20229;-82
2021/06/28 08:11:50;;;;;;;5.22;2.42;;;19.80;99.90;;;;;;4934349;29;20707;-81
2021/06/28 08:14:17;;;;;;;5.10;2.10;;;20.40;99.90;;;;;;4947344;28;20263;-82
2021/06/28 08:16:45;;;;;;;4.50;2.13;;;20.20;99.90;;;;;;4940484;29;20275;-81
2021/06/28 08:19:13;;;;;;;6.18;2.30;;;19.80;99.90;;;;;;4941749;29;20282;-81
2021/06/28 08:21:41;;;;;;;4.00;1.83;;;19.80;99.90;;;;;;4946743;29;20333;-82
2021/06/28 08:24:10;;;;;;;6.03;2.10;;;20.40;99.90;;;;;;4942661;28;20275;-81
2021/06/28 08:26:40;;;;;;;5.88;2.17;;;21.80;99.90;;;;;;4943129;29;20286;-82
2021/06/28 08:29:07;;;;;;;4.53;2.00;;;21.70;99.90;;;;;;4951507;29;20199;-82
2021/06/28 08:31:36;;;;;;;5.93;2.10;;;21.70;99.90;;;;;;4943565;29;20243;-82
2021/06/28 08:34:03;;;;;;;6.68;2.10;;;22.10;99.90;;;;;;4951366;29;20322;-82
2021/06/28 08:36:32;;;;;;;4.78;2.10;;;21.00;99.90;;;;;;4936790;29;20717;-82
2021/06/28 08:38:59;;;;;;;6.03;2.13;;;20.60;99.90;;;;;;4947745;29;20298;-82
2021/06/28 08:41:27;;;;;;;3.53;2.20;;;20.30;99.90;;;;;;4951594;29;20200;-83
2021/06/28 08:43:54;;;;;;;3.88;1.83;;;21.40;99.90;;;;;;4942899;29;20228;-82
2021/06/28 08:46:21;;;;;;;2.28;1.73;;;22.20;99.90;;;;;;4949955;29;20700;-82
2021/06/28 08:48:48;;;;;;;5.18;2.08;;;21.40;99.90;;;;;;4950530;29;20199;-82
2021/06/28 08:51:16;;;;;;;5.45;2.30;;;21.20;99.90;;;;;;4950745;29;20290;-82
2021/06/28 08:53:52;;;;;;;3.55;1.90;;;20.70;99.90;;;;;;4941792;29;20282;-82
2021/06/28 08:56:19;;;;;;;7.30;2.25;;;22.20;99.90;;;;;;4943502;29;20223;-81
2021/06/28 08:58:46;;;;;;;3.20;1.90;;;21.90;99.90;;;;;;4947278;29;20286;-83
2021/06/28 09:01:13;;;;;;;5.18;1.77;;;21.80;99.90;;;;;;4948036;29;21641;-82
2021/06/28 09:03:40;;;;;;;6.38;1.75;;;20.70;99.90;;;;;;4943318;29;20274;-83
2021/06/28 09:06:09;;;;;;;7.38;2.08;;;19.80;99.90;;;;;;4949045;28;20752;-84
2021/06/28 09:08:53;;;;;;;5.85;2.22;;;19.70;99.90;;;;;;4953581;28;20230;-83
2021/06/28 09:11:21;;;;;;;5.05;2.00;;;19.90;99.90;;;;;;4949456;28;20237;-83
2021/06/28 09:13:50;;;;;;;6.63;2.55;;;20.00;99.90;;;;;;4949254;28;20306;-82
2021/06/28 09:16:21;;;;;;;4.80;2.22;;;19.50;99.90;;;;;;4942794;29;20949;-83
2021/06/28 09:18:56;;;;;;;4.82;2.28;;;19.30;99.90;;;;;;4949286;29;20239;-83
2021/06/28 09:21:27;;;;;;;4.13;2.20;;;18.70;99.90;;;;;;4943230;29;20363;-82
2021/06/28 09:23:54;;;;;;;7.55;2.47;;;18.50;99.90;;;;;;4943940;28;20211;-83
2021/06/28 09:26:27;;;;;;;6.65;2.38;;;18.10;99.90;;;;;;4943150;29;20234;-84
2021/06/28 09:28:56;;;;;;;4.88;2.00;;;18.10;99.90;;;;;;4944428;29;20307;-83
2021/06/28 09:31:43;;;;;;;5.63;2.42;;;18.00;99.90;;;;;;4945027;29;20222;-83
2021/06/28 09:34:15;;;;;;;3.97;2.30;;;17.90;99.90;;;;;;4944994;29;20278;-82
2021/06/28 09:36:56;;;;;;;6.57;2.42;;;17.90;99.90;;;;;;4954606;28;20255;-83
2021/06/28 09:39:31;;;;;;;5.53;2.55;;;17.90;99.90;;;;;;4946296;29;20282;-83
2021/06/28 09:42:12;;;;;;;4.97;2.40;;;18.00;99.90;;;;;;4944584;28;20208;-83
2021/06/28 09:44:42;;;;;;;6.35;2.50;;;17.90;99.90;;;;;;4941450;29;20199;-83
2021/06/28 09:47:12;;;;;;;6.63;2.70;;;17.80;99.90;;;;;;4946158;28;20674;-83
2021/06/28 09:49:40;;;;;;;5.47;2.33;;;17.80;99.90;;;;;;4949329;28;20278;-83
2021/06/28 09:52:08;;;;;;;5.00;2.22;;;17.90;99.90;;;;;;4944931;28;20274;-83
2021/06/28 09:54:36;;;;;;;4.05;2.42;;;17.70;99.90;;;;;;4942132;29;20208;-82
2021/06/28 09:57:06;;;;;;;7.70;2.70;;;17.60;99.90;;;;;;4949045;29;20254;-84
2021/06/28 09:59:36;;;;;;;5.25;2.10;;;17.50;99.90;;;;;;4950963;28;20299;-82
2021/06/28 10:02:23;;;;;;;4.97;2.30;;;17.50;99.90;;;;;;4935470;29;20674;-82
2021/06/28 10:04:55;;;;;;;5.25;2.50;;;17.40;99.90;;;;;;4932434;29;20205;-83
2021/06/28 10:07:32;;;;;;;7.05;2.20;;;17.30;99.90;;;;;;4947309;29;20200;-82
2021/06/28 10:10:25;;;;;;;6.93;2.63;;;17.40;99.90;;;;;;4938990;29;20736;-82
2021/06/28 10:13:10;;;;;;;11.20;2.67;;;17.40;99.90;;;;;;4946960;29;20257;-82
2021/06/28 10:15:40;;;;;;;4.75;2.40;;;17.30;99.90;;;;;;4947187;29;20274;-82
2021/06/28 10:18:10;;;;;;;4.43;2.27;;;17.30;99.90;;;;;;4948164;29;20310;-83
2021/06/28 10:20:40;;;;;;;4.73;2.83;;;17.10;99.90;;;;;;4942170;29;20229;-83
2021/06/28 10:23:07;;;;;;;5.50;2.60;;;17.10;99.90;;;;;;4937285;29;20736;-82
2021/06/28 10:25:36;;;;;;;7.87;2.90;;;17.10;99.90;;;;;;4945782;29;20238;-83
2021/06/28 10:28:05;;;;;;;5.73;3.10;;;17.20;99.90;;;;;;4943798;29;20203;-81
2021/06/28 10:30:33;;;;;;;5.03;2.70;;;17.30;99.90;;;;;;4952148;29;20928;-81
2021/06/28 10:33:09;;;;;;;6.15;2.67;;;17.60;99.90;;;;;;4944670;29;20204;-82
2021/06/28 10:35:37;;;;;;;4.70;2.90;;;17.70;99.90;;;;;;4930641;29;20596;-82
2021/06/28 10:38:07;;;;;;;6.82;2.67;;;17.60;99.90;;;;;;4941896;29;20263;-82
2021/06/28 10:40:53;;;;;;;4.90;2.50;;;17.50;99.90;;;;;;4944749;29;20232;-81
2021/06/28 10:43:26;;;;;;;6.03;2.57;;;17.30;99.90;;;;;;4944122;29;20238;-82
2021/06/28 10:45:55;;;;;;;6.55;2.53;;;17.30;99.90;;;;;;4950324;29;20203;-82
2021/06/28 10:48:24;;;;;;;9.50;3.20;;;17.50;99.90;;;;;;4951487;28;20247;-81
2021/06/28 10:50:55;;;;;;;3.72;2.30;;;17.70;99.90;;;;;;4964144;28;20610;-81
2021/06/28 10:54:01;;;;;;;5.93;2.60;;;17.70;99.90;;;;;;4946748;29;20294;-81
2021/06/28 10:56:51;;;;;;;6.15;2.58;;;17.80;99.90;;;;;;4947552;29;20230;-81
2021/06/28 10:59:24;;;;;;;2.93;2.17;;;18.00;99.90;;;;;;4943243;29;20201;-81
2021/06/28 11:02:04;;;;;;;3.97;2.03;;;17.90;99.90;;;;;;4943932;29;20203;-81
2021/06/28 11:04:32;;;;;;;5.15;2.15;;;17.80;99.90;;;;;;4946207;28;20207;-81
2021/06/28 11:07:14;;;;;;;4.17;2.20;;;17.70;99.90;;;;;;4943552;29;20253;-81
2021/06/28 11:09:44;;;;;;;5.13;2.13;;;17.70;99.90;;;;;;4951308;28;20290;-82
2021/06/28 11:12:30;;;;;;;6.83;2.30;;;17.60;99.90;;;;;;4945855;29;20685;-81
2021/06/28 11:15:04;;;;;;;4.00;2.00;;;17.50;99.90;;;;;;4940927;28;20283;-81
2021/06/28 11:17:54;;;;;;;2.93;1.93;;;17.40;99.90;;;;;;4947353;29;20269;-81
2021/06/28 11:20:30;;;;;;;4.13;2.10;;;17.50;99.90;;;;;;4942084;28;20223;-82
2021/06/28 11:23:05;;;;;;;4.17;2.00;;;17.50;99.90;;;;;;4948953;29;20227;-81
2021/06/28 11:25:42;;;;;;;4.13;2.03;;;17.30;99.90;;;;;;4952588;29;20253;-81
2021/06/28 11:28:28;;;;;;;7.30;2.33;;;17.10;99.90;;;;;;4939903;29;20291;-80
2021/06/28 11:31:04;;;;;;;6.00;2.80;;;16.90;99.90;;;;;;4951910;29;20203;-80
2021/06/28 11:33:53;;;;;;;7.30;3.30;;;16.70;99.90;;;;;;4949275;29;20238;-79
2021/06/28 11:36:36;;;;;;;6.10;3.03;;;16.20;99.90;;;;;;4938981;29;20208;-78
2021/06/28 11:39:07;;;;;;;5.30;2.30;;;15.60;99.90;;;;;;4934633;29;20258;-79
2021/06/28 11:41:35;;;;;;;2.83;1.00;;;14.70;99.90;;;;;;4939998;29;20368;-79
2021/06/28 11:44:03;;;;;;;1.87;0.80;;;13.80;99.90;;;;;;4938285;29;20234;-79
2021/06/28 11:46:49;;;;;;;2.30;1.10;;;13.50;99.90;;;;;;4943712;29;20291;-79
2021/06/28 11:49:25;;;;;;;1.10;0.80;;;13.40;99.90;;;;;;4949494;29;20203;-79
2021/06/28 11:51:53;;;;;;;1.43;0.90;;;13.40;99.90;;;;;;4952301;29;20231;-79
2021/06/28 11:54:22;;;;;;;2.17;1.00;;;13.50;99.90;;;;;;4937394;29;20622;-80
2021/06/28 11:56:51;;;;;;;2.47;1.33;;;13.50;99.90;;;;;;4943676;29;20265;-80
2021/06/28 11:59:20;;;;;;;2.67;1.40;;;13.40;99.90;;;;;;4942938;28;20208;-79
2021/06/28 12:01:50;;;;;;;1.43;1.00;;;13.60;99.90;;;;;;4944193;29;20205;-80
2021/06/28 12:04:18;;;;;;;2.93;1.20;;;13.60;99.90;;;;;;4938094;29;20200;-80
2021/06/28 12:06:47;;;;;;;2.47;1.47;;;13.70;99.90;;;;;;4937615;28;20287;-80
2021/06/28 12:09:17;;;;;;;1.83;1.50;;;13.80;99.90;;;;;;4943395;29;20203;-80
2021/06/28 12:11:53;;;;;;;2.33;1.60;;;13.90;99.90;;;;;;4950160;29;20652;-80
2021/06/28 12:14:45;;;;;;;3.50;1.60;;;14.10;99.90;;;;;;4944766;29;20212;-80
2021/06/28 12:17:14;;;;;;;2.07;1.40;;;14.00;99.90;;;;;;4940916;29;20357;-80
2021/06/28 12:19:43;;;;;;;2.97;1.63;;;14.10;99.90;;;;;;4952772;29;20203;-80
2021/06/28 12:22:16;;;;;;;2.07;1.50;;;14.30;99.90;;;;;;4953483;29;20716;-80
2021/06/28 12:24:43;;;;;;;2.70;1.70;;;14.40;99.90;;;;;;4951689;29;20293;-80
2021/06/28 12:27:12;;;;;;;4.00;2.10;;;14.60;99.90;;;;;;4951444;29;20242;-79
2021/06/28 12:29:41;;;;;;;3.03;2.10;;;14.80;99.90;;;;;;4941565;29;20282;-80
2021/06/28 12:32:23;;;;;;;3.57;2.40;;;15.00;99.90;;;;;;4948517;29;20195;-80
2021/06/28 12:34:58;;;;;;;3.17;2.57;;;15.00;99.90;;;;;;4936776;28;20238;-80
2021/06/28 12:37:29;;;;;;;4.50;2.87;;;15.30;99.90;;;;;;4952826;28;20250;-80
2021/06/28 12:40:12;;;;;;;4.23;2.60;;;15.40;99.90;;;;;;4949809;29;20761;-80
2021/06/28 12:42:41;;;;;;;4.90;3.20;;;15.60;99.90;;;;;;4945117;28;20309;-80
2021/06/28 12:45:09;;;;;;;4.03;2.63;;;15.70;99.90;;;;;;4948636;29;20237;-80
2021/06/28 12:47:36;;;;;;;5.07;2.87;;;15.70;99.90;;;;;;4943566;29;20204;-80
2021/06/28 12:50:04;;;;;;;3.60;2.37;;;15.80;99.90;;;;;;4950023;29;20769;-80
2021/06/28 12:52:36;;;;;;;3.33;1.90;;;15.80;99.90;;;;;;4959912;28;20247;-80
2021/06/28 12:55:19;;;;;;;1.83;1.67;;;15.70;99.90;;;;;;4957762;28;20203;-81
2021/06/28 12:57:48;;;;;;;3.30;1.50;;;15.60;99.90;;;;;;4950712;29;20252;-80
2021/06/28 13:00:21;;;;;;;1.60;1.30;;;15.60;99.90;;;;;;4954288;28;20230;-80
2021/06/28 13:02:59;;;;;;;3.27;1.70;;;15.70;99.90;;;;;;4955142;28;20210;-81